»·PEaware :: N4657 KSNS-KSBA

N4657 :: KSNS-KSBA

FLIGHT INFORMATION

Flight Status: Arrived
Operator: Privately registered:
United States
More flights under this callsign
Pilot: Daniel P. (20187)
Aircraft: PILATUS PC-12 EAGLE
(PC12)
More flights by this aircraft type
Origin: KSNS Salinas Mun
United States
Destination: KSBA Santa Barbara Mun
United States
More flights between these airports :: More routes between these airports
Route: ROM V485 FLW KSBA
File this flight plan on PilotEdge
Remarks:
Altitude:
(Current/Filed)
135ft
Speed:
(Current/Filed)
200kts
Departed: 06-Sep-18 11:17 AM
Arrived: 06-Sep-18 01:08 PM
Distance/Time
Traveled:
159nm/1:51
Distance/Time
To Go:
Arrived

Flight Plot

Page will automatically refresh every two minutes.

Flight plan parsing failed; only flown route is shown


Map Options




Map Legend


Flown Route
Filed Route
Departure Airport
Arrival Airport
Navaid (VOR, NDB)
Fix

Horizontal Profiles

Position Reports

Time Latitude Longitude Heading Altitude Ground
Speed
06-Sep-18 11:05 36.665667 -121.611414 327 74ft 0kts
06-Sep-18 11:06 36.665667 -121.611414 327 74ft 0kts
06-Sep-18 11:07 36.665667 -121.611414 327 74ft 0kts
06-Sep-18 11:08 36.665667 -121.611414 327 74ft 0kts
06-Sep-18 11:09 36.665667 -121.611414 327 74ft 0kts
06-Sep-18 11:10 36.665667 -121.611414 327 74ft 0kts
06-Sep-18 11:11 36.665359 -121.611160 185 73ft 5kts
06-Sep-18 11:12 36.664807 -121.609327 125 73ft 9kts
06-Sep-18 11:13 36.662470 -121.606740 146 74ft 14kts
06-Sep-18 11:14 36.658995 -121.604075 147 70ft 14kts
06-Sep-18 11:15 36.657172 -121.602192 114 66ft 0kts
06-Sep-18 11:16 36.657172 -121.602192 114 66ft 0kts
06-Sep-18 11:17 36.657172 -121.602192 114 66ft 0kts
06-Sep-18 11:18 36.657304 -121.601580 58 64ft 7kts
06-Sep-18 11:19 36.666753 -121.608580 327 267ft 105kts
06-Sep-18 11:20 36.661398 -121.618164 102 1823ft 112kts
06-Sep-18 11:21 36.654858 -121.576298 132 3388ft 152kts
06-Sep-18 11:22 36.616367 -121.537394 131 4535ft 195kts
06-Sep-18 11:23 36.574356 -121.491024 137 5751ft 209kts
06-Sep-18 11:24 36.531033 -121.441138 137 6950ft 215kts
06-Sep-18 11:25 36.487106 -121.389654 137 8146ft 218kts
06-Sep-18 11:26 36.450811 -121.329343 125 9341ft 220kts
06-Sep-18 11:27 36.415956 -121.266491 131 10395ft 224kts
06-Sep-18 11:28 36.375192 -121.207123 133 11191ft 228kts
06-Sep-18 11:29 36.334085 -121.147904 133 11982ft 227kts
06-Sep-18 11:30 36.293121 -121.088823 132 12775ft 225kts
06-Sep-18 11:31 36.252391 -121.030188 132 13507ft 227kts
06-Sep-18 11:32 36.209249 -120.968247 131 13527ft 245kts
06-Sep-18 11:32 36.171844 -120.914415 131 13527ft 251kts
06-Sep-18 11:34 36.118553 -120.837844 131 13520ft 253kts
06-Sep-18 11:35 36.069455 -120.775927 143 13512ft 253kts
06-Sep-18 11:36 36.013453 -120.723054 143 13503ft 254kts
06-Sep-18 11:36 35.966761 -120.678932 143 13499ft 254kts
06-Sep-18 11:37 35.910718 -120.626048 143 13499ft 254kts
06-Sep-18 11:38 35.855037 -120.573608 143 13501ft 254kts
06-Sep-18 11:40 35.789430 -120.511930 143 13483ft 255kts
06-Sep-18 11:40 35.742455 -120.467854 143 13482ft 254kts
06-Sep-18 11:41 35.686348 -120.415298 143 13482ft 254kts
06-Sep-18 11:42 35.630084 -120.362692 143 13482ft 254kts
06-Sep-18 11:43 35.574191 -120.310526 143 13482ft 254kts
06-Sep-18 11:44 35.518070 -120.258244 143 13475ft 254kts
06-Sep-18 11:45 35.461619 -120.205832 143 12826ft 253kts
06-Sep-18 11:46 35.407920 -120.155987 143 12017ft 235kts
06-Sep-18 11:47 35.356506 -120.108334 143 11214ft 230kts
06-Sep-18 11:48 35.305841 -120.061372 143 10413ft 229kts
06-Sep-18 11:49 35.255356 -120.014768 143 9613ft 228kts
06-Sep-18 11:50 35.205139 -119.968460 143 8815ft 227kts
06-Sep-18 11:51 35.154875 -119.922175 143 8013ft 226kts
06-Sep-18 11:52 35.105214 -119.876492 143 7496ft 215kts
06-Sep-18 11:53 35.050342 -119.864064 178 7504ft 202kts
06-Sep-18 11:54 34.994691 -119.861829 178 7508ft 199kts
06-Sep-18 11:55 34.939721 -119.859835 178 7508ft 197kts
06-Sep-18 11:56 34.885138 -119.857938 177 7507ft 197kts
06-Sep-18 11:57 34.829612 -119.855930 177 7505ft 199kts
06-Sep-18 11:58 34.774664 -119.853938 177 7499ft 197kts
06-Sep-18 11:59 34.722625 -119.869766 204 7495ft 198kts
06-Sep-18 12:00 34.672723 -119.897953 201 7497ft 198kts
06-Sep-18 12:01 34.630385 -119.935820 251 7504ft 203kts
06-Sep-18 12:02 34.637364 -119.999862 309 7510ft 206kts
06-Sep-18 12:03 34.669573 -120.053958 306 6931ft 189kts
06-Sep-18 12:04 34.705406 -120.094092 349 6478ft 180kts
06-Sep-18 12:05 34.756291 -120.071190 39 6510ft 215kts
06-Sep-18 12:06 34.786436 -120.006914 66 6508ft 226kts
06-Sep-18 12:07 34.818297 -119.938354 61 6508ft 242kts
06-Sep-18 12:08 34.853304 -119.867224 58 6620ft 242kts
06-Sep-18 12:09 34.883955 -119.797824 59 5961ft 231kts
06-Sep-18 12:10 34.905165 -119.729286 95 4554ft 193kts
06-Sep-18 12:11 34.902584 -119.670044 71 3492ft 166kts
06-Sep-18 12:12 34.929131 -119.651854 320 3103ft 93kts
06-Sep-18 12:13 34.937136 -119.678774 295 2242ft 86kts
06-Sep-18 12:14 34.941956 -119.690505 311 2158ft 9kts
06-Sep-18 12:16 34.943169 -119.691140 172 2154ft 2kts
06-Sep-18 12:17 34.943126 -119.691136 178 2154ft 0kts
06-Sep-18 12:18 34.943126 -119.691136 178 2154ft 0kts
06-Sep-18 12:19 34.943126 -119.691136 178 2154ft 0kts
06-Sep-18 12:20 34.943126 -119.691136 178 2154ft 0kts
06-Sep-18 12:21 34.943126 -119.691136 178 2154ft 0kts
06-Sep-18 12:22 34.943126 -119.691136 178 2154ft 0kts
06-Sep-18 12:23 34.943126 -119.691136 178 2154ft 0kts
06-Sep-18 12:24 34.943126 -119.691136 178 2154ft 0kts
06-Sep-18 12:25 34.943126 -119.691136 178 2154ft 0kts
06-Sep-18 12:26 34.943126 -119.691136 178 2154ft 0kts
06-Sep-18 12:27 34.943126 -119.691136 178 2154ft 0kts
06-Sep-18 12:28 34.943126 -119.691136 178 2154ft 0kts
06-Sep-18 12:29 34.943126 -119.691136 178 2154ft 0kts
06-Sep-18 12:30 34.943126 -119.691136 178 2154ft 0kts
06-Sep-18 12:31 34.943126 -119.691136 178 2154ft 0kts
06-Sep-18 12:32 34.943126 -119.691136 178 2154ft 0kts
06-Sep-18 12:33 34.943126 -119.691136 178 2154ft 0kts
06-Sep-18 12:34 34.943126 -119.691136 178 2154ft 0kts
06-Sep-18 12:35 34.943126 -119.691136 178 2154ft 0kts
06-Sep-18 12:36 34.943126 -119.691136 178 2154ft 0kts
06-Sep-18 12:40 34.943127 -119.691136 178 2154ft 0kts
06-Sep-18 12:41 34.943127 -119.691136 178 2154ft 0kts
06-Sep-18 12:42 34.943127 -119.691136 178 2154ft 0kts
06-Sep-18 12:43 34.943127 -119.691136 178 2154ft 0kts
06-Sep-18 12:44 34.943128 -119.691136 179 2154ft 0kts
06-Sep-18 12:45 34.943128 -119.691136 179 2154ft 0kts
06-Sep-18 12:46 34.943128 -119.691136 179 2154ft 0kts
06-Sep-18 12:47 34.943128 -119.691136 179 2154ft 0kts
06-Sep-18 12:48 34.943128 -119.691136 179 2154ft 0kts
06-Sep-18 12:49 34.943128 -119.691136 179 2154ft 0kts
06-Sep-18 12:50 34.943128 -119.691136 179 2154ft 0kts
06-Sep-18 12:51 34.942557 -119.691269 189 2155ft 4kts
06-Sep-18 12:52 34.932389 -119.666573 139 2932ft 117kts
06-Sep-18 12:53 34.926536 -119.698453 281 4439ft 145kts
06-Sep-18 12:54 34.899454 -119.723718 167 6471ft 153kts
06-Sep-18 12:55 34.852327 -119.722557 189 7503ft 201kts
06-Sep-18 12:56 34.803175 -119.735947 191 7498ft 233kts
06-Sep-18 12:57 34.739008 -119.754008 191 7491ft 226kts
06-Sep-18 12:58 34.688592 -119.768186 191 7485ft 146kts
06-Sep-18 12:59 34.651638 -119.778436 190 7496ft 138kts
06-Sep-18 13:00 34.613415 -119.789129 191 7394ft 148kts
06-Sep-18 13:01 34.571875 -119.800228 189 6989ft 149kts
06-Sep-18 13:02 34.549348 -119.768372 104 6410ft 145kts
06-Sep-18 13:03 34.529881 -119.728490 148 5817ft 138kts
06-Sep-18 13:04 34.497073 -119.702313 149 4728ft 151kts
06-Sep-18 13:05 34.460299 -119.701721 226 3383ft 157kts
06-Sep-18 13:06 34.447802 -119.740669 191 2154ft 157kts
06-Sep-18 13:07 34.430467 -119.776229 261 784ft 116kts
06-Sep-18 13:08 34.428429 -119.812134 268 412ft 97kts
06-Sep-18 13:09 34.427773 -119.841001 267 14ft 73kts
06-Sep-18 13:10 34.428439 -119.845830 4 14ft 8kts
06-Sep-18 13:11 34.429345 -119.845259 65 14ft 0kts
06-Sep-18 13:12 34.429345 -119.845259 64 14ft 0kts

Navigation Log

Ident Type
Flight plan parsing failed, navigation log unavailable